Time;durP1;ratioP1;P1;durP2;ratioP2;P2;SDS_P1;SDS_P2;PMS_P1;PMS_P2;Temp;Humidity;BMP_temperature;BMP_pressure;BME280_temperature;BME280_humidity;BME280_pressure;Samples;Min_cycle;Max_cycle;Signal;HPM_P1;HPM_P2
2024/01/30 00:01:10;;;;;;;23.20;16.20;;;3.70;99.90;;;;;;4973089;28;20510;-47
2024/01/30 00:03:36;;;;;;;28.73;18.58;;;3.70;99.90;;;;;;4972825;28;20019;-47
2024/01/30 00:06:03;;;;;;;31.60;18.27;;;3.60;99.90;;;;;;4973344;28;20038;-44
2024/01/30 00:08:29;;;;;;;26.90;18.00;;;3.60;99.90;;;;;;4973636;28;20034;-44
2024/01/30 00:10:54;;;;;;;26.25;17.58;;;3.60;99.90;;;;;;4973602;28;20031;-44
2024/01/30 00:13:20;;;;;;;22.83;15.50;;;3.50;99.90;;;;;;4971542;28;20484;-44
2024/01/30 00:15:45;;;;;;;28.70;18.13;;;3.50;99.90;;;;;;4973272;28;20023;-43
2024/01/30 00:18:11;;;;;;;26.90;19.55;;;3.50;99.90;;;;;;4972762;28;20045;-45
2024/01/30 00:20:36;;;;;;;29.48;18.23;;;3.50;99.90;;;;;;4972843;28;20481;-42
2024/01/30 00:23:02;;;;;;;25.05;18.25;;;3.50;99.90;;;;;;4972618;28;20031;-45
2024/01/30 00:25:28;;;;;;;33.78;17.27;;;3.50;99.90;;;;;;4972775;28;20630;-43
2024/01/30 00:27:53;;;;;;;25.60;17.13;;;3.50;99.90;;;;;;4972801;28;20027;-45
2024/01/30 00:30:20;;;;;;;31.15;18.50;;;3.50;99.90;;;;;;4973151;28;20035;-47
2024/01/30 00:32:46;;;;;;;27.38;18.63;;;3.50;99.90;;;;;;4971172;28;20082;-48
2024/01/30 00:35:11;;;;;;;24.48;18.42;;;3.50;99.90;;;;;;4972600;28;20027;-47
2024/01/30 00:37:37;;;;;;;33.08;17.30;;;3.50;99.90;;;;;;4972555;28;20035;-45
2024/01/30 00:40:03;;;;;;;24.45;16.90;;;3.50;99.90;;;;;;4972588;28;20038;-44
2024/01/30 00:42:29;;;;;;;25.48;16.58;;;3.50;99.90;;;;;;4972349;28;20026;-46
2024/01/30 00:44:54;;;;;;;24.35;16.15;;;3.50;99.90;;;;;;4972881;28;20125;-47
2024/01/30 00:47:20;;;;;;;24.73;16.20;;;3.50;99.90;;;;;;4972598;28;20027;-49
2024/01/30 00:49:45;;;;;;;27.08;18.38;;;3.50;99.90;;;;;;4972566;28;20023;-45
2024/01/30 00:52:11;;;;;;;26.15;16.92;;;3.50;99.90;;;;;;4973552;28;20030;-45
2024/01/30 00:54:37;;;;;;;22.60;14.68;;;3.40;99.90;;;;;;4976141;28;20069;-45
2024/01/30 00:57:02;;;;;;;21.98;15.63;;;3.40;99.90;;;;;;4976496;28;20027;-45
2024/01/30 00:59:28;;;;;;;22.20;15.48;;;3.40;99.90;;;;;;4976358;28;20046;-46
2024/01/30 01:01:53;;;;;;;25.33;15.43;;;3.40;99.90;;;;;;4976412;28;20098;-44
2024/01/30 01:04:21;;;;;;;29.13;16.92;;;3.40;99.90;;;;;;4975862;28;20035;-42
2024/01/30 01:06:46;;;;;;;20.90;14.75;;;3.40;99.90;;;;;;4976023;28;20035;-43
2024/01/30 01:09:12;;;;;;;19.88;14.85;;;3.40;99.90;;;;;;4976135;28;20023;-47
2024/01/30 01:11:38;;;;;;;23.92;16.25;;;3.40;99.90;;;;;;4976066;28;20028;-44
2024/01/30 01:14:04;;;;;;;21.95;15.63;;;3.40;99.90;;;;;;4975980;28;20077;-43
2024/01/30 01:16:30;;;;;;;26.45;15.65;;;3.40;99.90;;;;;;4976044;28;20031;-45
2024/01/30 01:18:55;;;;;;;20.02;14.27;;;3.40;99.90;;;;;;4975870;28;20034;-45
2024/01/30 01:21:21;;;;;;;21.73;14.55;;;3.40;99.90;;;;;;4975847;28;20053;-47
2024/01/30 01:23:46;;;;;;;21.73;13.25;;;3.40;99.90;;;;;;4975354;28;20023;-45
2024/01/30 01:26:12;;;;;;;25.10;15.73;;;3.40;99.90;;;;;;4975881;28;20027;-45
2024/01/30 01:28:40;;;;;;;27.00;15.38;;;3.40;99.90;;;;;;4975951;28;20037;-44
2024/01/30 01:31:06;;;;;;;24.67;13.70;;;3.40;99.90;;;;;;4975760;28;20468;-45
2024/01/30 01:33:35;;;;;;;18.45;14.77;;;3.40;99.90;;;;;;4975416;28;20033;-49
2024/01/30 01:36:04;;;;;;;22.50;14.75;;;3.40;99.90;;;;;;4975592;28;20023;-47
2024/01/30 01:38:29;;;;;;;22.58;13.90;;;3.40;99.90;;;;;;4975663;28;20027;-43
2024/01/30 01:40:55;;;;;;;24.02;14.93;;;3.40;99.90;;;;;;4975587;28;20114;-46
2024/01/30 01:43:20;;;;;;;25.50;13.93;;;3.40;99.90;;;;;;4975172;28;20027;-43
2024/01/30 01:45:46;;;;;;;24.10;14.73;;;3.30;99.90;;;;;;4975583;28;20030;-46
2024/01/30 01:48:12;;;;;;;20.98;14.20;;;3.30;99.90;;;;;;4975301;28;20026;-48
2024/01/30 01:50:38;;;;;;;19.17;13.07;;;3.30;99.90;;;;;;4957897;28;20080;-43
2024/01/30 01:53:07;;;;;;;28.95;13.77;;;3.30;99.90;;;;;;4975110;28;20030;-44
2024/01/30 01:55:34;;;;;;;23.35;13.27;;;3.20;99.90;;;;;;4975511;28;20491;-47
2024/01/30 01:57:59;;;;;;;23.98;15.23;;;3.20;99.90;;;;;;4975733;28;20361;-44
2024/01/30 02:00:25;;;;;;;19.15;13.52;;;3.10;99.90;;;;;;4975497;28;20023;-45
2024/01/30 02:02:51;;;;;;;15.30;12.60;;;3.10;99.90;;;;;;4974901;28;20034;-44
2024/01/30 02:05:17;;;;;;;24.58;14.55;;;3.10;99.90;;;;;;4973926;28;20110;-48
2024/01/30 02:07:43;;;;;;;17.95;13.75;;;3.00;99.90;;;;;;4975226;28;20110;-45
2024/01/30 02:10:11;;;;;;;18.30;13.73;;;3.00;99.90;;;;;;4975093;28;20026;-47
2024/01/30 02:12:38;;;;;;;19.58;13.88;;;3.00;99.90;;;;;;4974696;28;20050;-43
2024/01/30 02:15:04;;;;;;;22.65;13.65;;;2.90;99.90;;;;;;4974840;28;20030;-46
2024/01/30 02:17:30;;;;;;;17.20;13.65;;;2.90;99.90;;;;;;4974907;28;20034;-43
2024/01/30 02:19:56;;;;;;;24.27;14.32;;;2.90;99.90;;;;;;4974915;28;20031;-43
2024/01/30 02:22:23;;;;;;;21.90;13.48;;;2.90;99.90;;;;;;4974432;28;20026;-46
2024/01/30 02:24:48;;;;;;;20.25;13.15;;;2.90;99.90;;;;;;4974572;28;20037;-47
2024/01/30 02:27:14;;;;;;;19.00;12.68;;;2.90;99.90;;;;;;4974664;28;20034;-47
2024/01/30 02:29:39;;;;;;;17.85;13.95;;;2.80;99.90;;;;;;4975117;28;20102;-45
2024/01/30 02:32:06;;;;;;;21.10;13.95;;;2.80;99.90;;;;;;4974518;28;20462;-44
2024/01/30 02:34:31;;;;;;;22.33;13.95;;;2.80;99.90;;;;;;4956826;28;20038;-46
2024/01/30 02:36:57;;;;;;;17.75;12.88;;;2.80;99.90;;;;;;4974513;28;20408;-44
2024/01/30 02:39:22;;;;;;;16.38;12.43;;;2.70;99.90;;;;;;4974321;28;20154;-45
2024/01/30 02:41:48;;;;;;;19.50;13.75;;;2.70;99.90;;;;;;4974673;28;20070;-44
2024/01/30 02:44:13;;;;;;;18.13;12.57;;;2.60;99.90;;;;;;4973625;28;20034;-43
2024/01/30 02:46:39;;;;;;;21.15;14.30;;;2.60;99.90;;;;;;4974250;28;20033;-45
2024/01/30 02:49:04;;;;;;;16.17;11.93;;;2.60;99.90;;;;;;4974073;28;20029;-44
2024/01/30 02:51:30;;;;;;;19.40;13.25;;;2.60;99.90;;;;;;4973928;28;20031;-43
2024/01/30 02:53:55;;;;;;;19.48;12.95;;;2.50;99.90;;;;;;4973939;28;20061;-43
2024/01/30 02:56:20;;;;;;;24.77;13.60;;;2.50;99.90;;;;;;4973837;28;20042;-46
2024/01/30 02:58:46;;;;;;;18.08;12.57;;;2.50;99.90;;;;;;4974274;28;20484;-45
2024/01/30 03:01:11;;;;;;;19.40;12.95;;;2.50;99.90;;;;;;4974072;28;20062;-43
2024/01/30 03:03:37;;;;;;;22.02;12.82;;;2.50;99.90;;;;;;4973416;28;20492;-44
2024/01/30 03:06:03;;;;;;;21.35;13.35;;;2.50;99.90;;;;;;4973892;28;20023;-45
2024/01/30 03:08:28;;;;;;;19.83;13.38;;;2.50;99.90;;;;;;4973649;28;20492;-43
2024/01/30 03:10:54;;;;;;;18.00;12.20;;;2.50;99.90;;;;;;4973849;28;20034;-43
2024/01/30 03:13:19;;;;;;;17.88;12.35;;;2.50;99.90;;;;;;4955964;28;20550;-44
2024/01/30 03:15:45;;;;;;;19.17;13.18;;;2.50;99.90;;;;;;4973573;28;20030;-42
2024/01/30 03:18:10;;;;;;;17.83;12.25;;;2.40;99.90;;;;;;4973500;28;20161;-43
2024/01/30 03:20:36;;;;;;;17.25;12.20;;;2.40;99.90;;;;;;4973465;28;20038;-44
2024/01/30 03:23:01;;;;;;;17.80;12.80;;;2.50;99.90;;;;;;4973220;28;20088;-43
2024/01/30 03:25:27;;;;;;;16.55;12.10;;;2.40;99.90;;;;;;4955929;28;20034;-43
2024/01/30 03:27:52;;;;;;;18.27;11.82;;;2.40;99.90;;;;;;4973501;28;20142;-43
2024/01/30 03:30:18;;;;;;;21.55;14.05;;;2.40;99.90;;;;;;4973388;28;20407;-43
2024/01/30 03:32:43;;;;;;;22.50;13.55;;;2.40;99.90;;;;;;4973079;28;20031;-42
2024/01/30 03:35:09;;;;;;;19.13;13.15;;;2.40;99.90;;;;;;4973169;28;20027;-44
2024/01/30 03:37:35;;;;;;;15.57;11.85;;;2.50;99.90;;;;;;4973279;28;20109;-43
2024/01/30 03:40:02;;;;;;;21.33;13.13;;;2.40;99.90;;;;;;4973183;28;20081;-43
2024/01/30 03:42:28;;;;;;;18.20;12.93;;;2.40;99.90;;;;;;4972875;28;20484;-47
2024/01/30 03:44:54;;;;;;;20.50;13.77;;;2.40;99.90;;;;;;4972882;28;20039;-43
2024/01/30 03:47:21;;;;;;;19.40;13.80;;;2.40;99.90;;;;;;4972973;28;20027;-44
2024/01/30 03:49:46;;;;;;;18.27;12.95;;;2.40;99.90;;;;;;4973020;28;20027;-42
2024/01/30 03:52:12;;;;;;;16.63;12.20;;;2.30;99.90;;;;;;4972877;28;20041;-42
2024/01/30 03:54:38;;;;;;;21.17;13.85;;;2.30;99.90;;;;;;4973037;28;20033;-42
2024/01/30 03:57:03;;;;;;;16.13;11.60;;;2.30;99.90;;;;;;4972893;28;20070;-43
2024/01/30 03:59:29;;;;;;;16.50;11.93;;;2.30;99.90;;;;;;4972911;28;20038;-45
2024/01/30 04:01:54;;;;;;;20.88;13.82;;;2.30;99.90;;;;;;4955437;28;20034;-41
2024/01/30 04:04:20;;;;;;;18.83;13.32;;;2.30;99.90;;;;;;4972533;28;20516;-42
2024/01/30 04:06:46;;;;;;;22.02;13.63;;;2.30;99.90;;;;;;4972981;28;20034;-43
2024/01/30 04:09:13;;;;;;;19.20;13.63;;;2.30;99.90;;;;;;4973116;28;20019;-43
2024/01/30 04:11:39;;;;;;;18.52;13.10;;;2.30;99.90;;;;;;4973691;28;20385;-43
2024/01/30 04:14:05;;;;;;;19.08;13.98;;;2.30;99.90;;;;;;4973092;28;20031;-43
2024/01/30 04:16:30;;;;;;;21.08;13.90;;;2.40;99.90;;;;;;4973498;28;20391;-44
2024/01/30 04:18:56;;;;;;;17.70;13.45;;;2.30;99.90;;;;;;4973122;28;20081;-44
2024/01/30 04:21:22;;;;;;;21.48;14.65;;;2.30;99.90;;;;;;4972762;28;20102;-47
2024/01/30 04:23:48;;;;;;;21.67;14.55;;;2.20;99.90;;;;;;4972473;28;20037;-47
2024/01/30 04:26:14;;;;;;;22.52;13.00;;;2.20;99.90;;;;;;4972458;28;20107;-42
2024/01/30 04:28:41;;;;;;;23.05;14.20;;;2.20;99.90;;;;;;4972297;28;20027;-45
2024/01/30 04:31:07;;;;;;;22.55;14.27;;;2.20;99.90;;;;;;4972520;28;20074;-42
2024/01/30 04:33:32;;;;;;;18.48;12.85;;;2.20;99.90;;;;;;4972212;28;20034;-44
2024/01/30 04:35:58;;;;;;;19.88;13.50;;;2.20;99.90;;;;;;4972553;28;20089;-44
2024/01/30 04:38:23;;;;;;;20.15;14.38;;;2.20;99.90;;;;;;4972592;28;20039;-45
2024/01/30 04:40:49;;;;;;;19.75;13.88;;;2.10;99.90;;;;;;4972587;28;20155;-44
2024/01/30 04:43:15;;;;;;;16.88;12.52;;;2.10;99.90;;;;;;4972299;28;20572;-44
2024/01/30 04:45:41;;;;;;;23.02;14.23;;;2.00;99.90;;;;;;4972292;28;20484;-45
2024/01/30 04:48:07;;;;;;;20.95;13.23;;;2.10;99.90;;;;;;4972745;28;20030;-47
2024/01/30 04:50:32;;;;;;;24.52;14.00;;;2.10;99.90;;;;;;4972698;28;20031;-42
2024/01/30 04:52:58;;;;;;;19.10;13.32;;;2.20;99.90;;;;;;4972390;28;20035;-42
2024/01/30 04:55:23;;;;;;;25.00;14.77;;;2.20;99.90;;;;;;4972380;28;20082;-45
2024/01/30 04:57:49;;;;;;;21.38;15.05;;;2.20;99.90;;;;;;4972781;28;20041;-43
2024/01/30 05:00:15;;;;;;;22.83;14.68;;;2.30;99.90;;;;;;4972740;28;20091;-42
2024/01/30 05:02:40;;;;;;;21.10;14.60;;;2.30;99.90;;;;;;4972669;28;20062;-42
2024/01/30 05:05:06;;;;;;;21.88;14.95;;;2.40;99.90;;;;;;4972675;28;20370;-43
2024/01/30 05:07:31;;;;;;;29.80;16.58;;;2.40;99.90;;;;;;4972778;28;20019;-43
2024/01/30 05:09:57;;;;;;;22.60;14.93;;;2.40;99.90;;;;;;4972530;28;20087;-42
2024/01/30 05:12:22;;;;;;;29.90;16.23;;;2.50;99.90;;;;;;4972474;28;20023;-42
2024/01/30 05:14:48;;;;;;;22.60;16.40;;;2.50;99.90;;;;;;4955068;28;20031;-43
2024/01/30 05:17:13;;;;;;;31.63;19.08;;;2.60;99.90;;;;;;4972418;28;20109;-42
2024/01/30 05:19:39;;;;;;;26.88;15.40;;;2.50;99.90;;;;;;4972552;28;20483;-42
2024/01/30 05:22:04;;;;;;;33.13;18.02;;;2.40;99.90;;;;;;4972273;28;20035;-42
2024/01/30 05:24:30;;;;;;;30.52;17.45;;;2.40;99.90;;;;;;4972215;28;20031;-42
2024/01/30 05:26:55;;;;;;;41.88;19.38;;;2.30;99.90;;;;;;4972297;28;20431;-42
2024/01/30 05:29:21;;;;;;;40.45;19.33;;;2.20;99.90;;;;;;4972715;28;20031;-42
2024/01/30 05:31:46;;;;;;;30.02;17.25;;;2.30;99.90;;;;;;4972356;28;20026;-42
2024/01/30 05:34:12;;;;;;;41.05;19.15;;;2.20;99.90;;;;;;4972434;28;20031;-43
2024/01/30 05:36:37;;;;;;;32.28;18.38;;;2.20;99.90;;;;;;4954943;28;20038;-43
2024/01/30 05:39:03;;;;;;;59.10;18.83;;;2.10;99.90;;;;;;4973044;28;20098;-43
2024/01/30 05:41:28;;;;;;;47.08;18.52;;;2.10;99.90;;;;;;4958434;28;20035;-43
2024/01/30 05:43:54;;;;;;;24.40;17.35;;;2.00;99.90;;;;;;4975147;28;20042;-43
2024/01/30 05:46:19;;;;;;;37.85;19.52;;;2.10;99.90;;;;;;4975931;28;20411;-44
2024/01/30 05:48:45;;;;;;;26.15;17.45;;;2.00;99.90;;;;;;4976094;28;20109;-47
2024/01/30 05:51:10;;;;;;;28.48;16.42;;;2.00;99.90;;;;;;4975503;28;20046;-43
2024/01/30 05:53:36;;;;;;;24.58;16.42;;;2.00;99.90;;;;;;4974954;28;20554;-41
2024/01/30 05:56:02;;;;;;;28.42;17.85;;;2.00;99.90;;;;;;4976613;28;20033;-47
2024/01/30 05:58:28;;;;;;;37.55;20.00;;;1.90;99.90;;;;;;4975504;28;20129;-45
2024/01/30 06:00:54;;;;;;;33.42;18.10;;;2.00;99.90;;;;;;4975014;28;20082;-47
2024/01/30 06:03:19;;;;;;;27.98;17.88;;;2.00;99.90;;;;;;4974634;28;20037;-45
2024/01/30 06:05:45;;;;;;;34.15;18.10;;;2.00;99.90;;;;;;4974929;28;20029;-47
2024/01/30 06:08:10;;;;;;;30.45;16.15;;;2.00;99.90;;;;;;4957403;28;20019;-45
2024/01/30 06:10:36;;;;;;;24.92;15.93;;;2.00;99.90;;;;;;4974914;28;20403;-46
2024/01/30 06:13:01;;;;;;;28.98;15.98;;;2.00;99.90;;;;;;4974436;28;20035;-45
2024/01/30 06:15:29;;;;;;;38.47;17.77;;;1.90;99.90;;;;;;4974624;28;20031;-44
2024/01/30 06:17:55;;;;;;;36.10;16.90;;;2.00;99.90;;;;;;4975524;28;20030;-42
2024/01/30 06:20:20;;;;;;;33.97;17.67;;;1.90;99.90;;;;;;4974931;28;20488;-45
2024/01/30 06:22:46;;;;;;;36.55;19.48;;;1.90;99.90;;;;;;4974839;28;20023;-46
2024/01/30 06:25:12;;;;;;;41.25;21.70;;;1.80;99.90;;;;;;4974647;28;20031;-43
2024/01/30 06:27:37;;;;;;;38.20;19.90;;;1.80;99.90;;;;;;4975024;28;20542;-44
2024/01/30 06:30:04;;;;;;;31.80;18.48;;;1.70;99.90;;;;;;4974850;28;20057;-49
2024/01/30 06:32:34;;;;;;;30.42;18.20;;;1.60;99.90;;;;;;4974355;28;20101;-44
2024/01/30 06:35:02;;;;;;;44.13;17.35;;;1.60;99.90;;;;;;4974490;28;20068;-44
2024/01/30 06:37:28;;;;;;;34.97;18.05;;;1.50;99.90;;;;;;4974384;28;20027;-44
2024/01/30 06:39:53;;;;;;;30.50;17.58;;;1.50;99.90;;;;;;4974293;28;20042;-41
2024/01/30 06:42:19;;;;;;;30.92;17.00;;;1.50;99.90;;;;;;4973987;28;20412;-45
2024/01/30 06:44:44;;;;;;;30.77;17.30;;;1.50;99.90;;;;;;4974682;28;20117;-42
2024/01/30 06:47:10;;;;;;;26.95;16.13;;;1.50;99.90;;;;;;4956848;28;20480;-43
2024/01/30 06:49:39;;;;;;;28.08;16.45;;;1.50;99.90;;;;;;4973605;28;20018;-44
2024/01/30 06:52:07;;;;;;;32.03;16.08;;;1.50;99.90;;;;;;4974012;28;20015;-45
2024/01/30 06:54:33;;;;;;;26.23;15.88;;;1.60;99.90;;;;;;4973856;28;20155;-46
2024/01/30 06:56:59;;;;;;;45.58;17.65;;;1.60;99.90;;;;;;4973986;28;20102;-46
2024/01/30 06:59:24;;;;;;;25.58;16.88;;;1.70;99.90;;;;;;4973838;28;20033;-45
2024/01/30 07:01:50;;;;;;;46.05;18.38;;;1.70;99.90;;;;;;4973883;28;20043;-43
2024/01/30 07:04:16;;;;;;;32.78;16.58;;;1.80;99.90;;;;;;4973487;28;20026;-46
2024/01/30 07:06:41;;;;;;;25.92;16.63;;;1.80;99.90;;;;;;4973727;28;20022;-46
2024/01/30 07:09:08;;;;;;;25.50;15.77;;;1.80;99.90;;;;;;4973831;28;20480;-47
2024/01/30 07:11:34;;;;;;;26.25;15.68;;;1.90;99.90;;;;;;4973632;28;20026;-44
2024/01/30 07:13:59;;;;;;;23.05;15.23;;;2.00;99.90;;;;;;4973460;28;20093;-44
2024/01/30 07:16:25;;;;;;;36.08;17.15;;;2.00;99.90;;;;;;4973801;28;20122;-44
2024/01/30 07:18:50;;;;;;;25.38;16.02;;;2.00;99.90;;;;;;4973617;28;20500;-44
2024/01/30 07:21:16;;;;;;;26.15;16.17;;;2.00;99.90;;;;;;4973619;28;20035;-47
2024/01/30 07:23:42;;;;;;;32.55;17.58;;;2.00;99.90;;;;;;4973124;28;20027;-45
2024/01/30 07:26:11;;;;;;;32.20;18.55;;;2.00;99.90;;;;;;4973597;28;20392;-49
2024/01/30 07:28:36;;;;;;;27.45;16.08;;;2.00;99.90;;;;;;4973491;28;20105;-44
2024/01/30 07:31:02;;;;;;;33.03;16.33;;;2.10;99.90;;;;;;4970422;28;20119;-43
2024/01/30 07:33:27;;;;;;;28.30;15.68;;;2.00;99.90;;;;;;4965610;28;20030;-47
2024/01/30 07:35:53;;;;;;;33.50;15.65;;;2.10;99.90;;;;;;4953788;29;20027;-45
2024/01/30 07:38:19;;;;;;;24.98;15.30;;;2.10;99.90;;;;;;4961084;28;20145;-45
2024/01/30 07:40:45;;;;;;;28.95;16.60;;;2.10;99.90;;;;;;4958098;28;20034;-49
2024/01/30 07:43:11;;;;;;;27.52;15.45;;;2.20;99.90;;;;;;4952836;28;20019;-45
2024/01/30 07:45:37;;;;;;;27.85;17.70;;;2.20;99.90;;;;;;4965432;28;20038;-42
2024/01/30 07:48:03;;;;;;;27.02;15.65;;;2.30;99.90;;;;;;4953842;29;20464;-47
2024/01/30 07:50:28;;;;;;;33.03;16.75;;;2.30;99.90;;;;;;4963695;28;20023;-48
2024/01/30 07:52:56;;;;;;;24.20;15.77;;;2.40;99.90;;;;;;4972707;28;20106;-47
2024/01/30 07:55:24;;;;;;;20.05;14.57;;;2.40;99.90;;;;;;4972900;28;20377;-45
2024/01/30 07:57:51;;;;;;;26.48;17.73;;;2.50;99.90;;;;;;4972924;28;20496;-45
2024/01/30 08:00:19;;;;;;;27.35;17.08;;;2.50;99.90;;;;;;4972884;28;20062;-49
2024/01/30 08:02:44;;;;;;;28.60;16.38;;;2.60;99.90;;;;;;4961272;28;20110;-46
2024/01/30 08:05:11;;;;;;;25.20;15.90;;;2.60;99.90;;;;;;4954064;29;20114;-45
2024/01/30 08:07:36;;;;;;;26.40;15.13;;;2.70;99.90;;;;;;4953266;29;20082;-49
2024/01/30 08:10:02;;;;;;;24.55;16.73;;;2.80;99.90;;;;;;4953341;29;20031;-48
2024/01/30 08:12:28;;;;;;;30.30;16.55;;;2.80;99.90;;;;;;4956731;28;20516;-47
2024/01/30 08:14:53;;;;;;;27.77;15.55;;;2.90;99.90;;;;;;4953117;29;20050;-47
2024/01/30 08:17:19;;;;;;;29.58;17.02;;;3.00;99.90;;;;;;4958141;28;20535;-46
2024/01/30 08:19:44;;;;;;;27.25;15.43;;;3.00;99.90;;;;;;4966220;28;20039;-48
2024/01/30 08:22:10;;;;;;;25.75;15.98;;;3.10;99.90;;;;;;4956938;28;20409;-46
2024/01/30 08:24:35;;;;;;;22.40;15.88;;;3.10;99.90;;;;;;4952274;29;20023;-47
2024/01/30 08:27:02;;;;;;;27.77;16.13;;;3.10;99.90;;;;;;4952672;29;20036;-45
2024/01/30 08:29:28;;;;;;;24.98;16.85;;;3.30;99.90;;;;;;4953032;29;20027;-44
2024/01/30 08:31:55;;;;;;;26.05;16.20;;;3.30;99.90;;;;;;4953119;29;20043;-43
2024/01/30 08:34:21;;;;;;;23.05;15.95;;;3.30;99.90;;;;;;4952926;29;20098;-45
2024/01/30 08:36:46;;;;;;;21.17;15.60;;;3.30;99.90;;;;;;4953255;29;20306;-46
2024/01/30 08:39:12;;;;;;;22.83;16.13;;;3.30;99.90;;;;;;4953161;29;20035;-43
2024/01/30 08:41:37;;;;;;;23.30;15.57;;;3.40;99.90;;;;;;4953164;29;20035;-47
2024/01/30 08:44:04;;;;;;;21.98;14.68;;;3.50;99.90;;;;;;4954829;28;20041;-43
2024/01/30 08:46:30;;;;;;;21.33;14.35;;;3.50;99.90;;;;;;4950001;28;20389;-46
2024/01/30 08:48:56;;;;;;;24.05;15.80;;;3.60;99.90;;;;;;4958579;28;20122;-47
2024/01/30 08:51:21;;;;;;;21.65;15.27;;;3.60;99.90;;;;;;4953701;29;20051;-42
2024/01/30 08:53:47;;;;;;;21.02;14.85;;;3.60;99.90;;;;;;4964849;28;20038;-47
2024/01/30 08:56:13;;;;;;;21.65;14.65;;;3.60;99.90;;;;;;4952953;29;20027;-45
2024/01/30 08:58:39;;;;;;;23.73;16.45;;;3.50;99.90;;;;;;4951245;29;20027;-45
2024/01/30 09:01:05;;;;;;;23.42;16.83;;;3.60;99.90;;;;;;4953332;29;20438;-45
2024/01/30 09:03:31;;;;;;;23.85;15.23;;;3.50;99.90;;;;;;4953585;29;20607;-45
2024/01/30 09:05:56;;;;;;;23.25;15.27;;;3.50;99.90;;;;;;4959867;28;20030;-48
2024/01/30 09:08:22;;;;;;;24.48;15.63;;;3.40;99.90;;;;;;4951768;28;20102;-49
2024/01/30 09:10:49;;;;;;;21.15;16.98;;;3.40;99.90;;;;;;4957068;28;20054;-48
2024/01/30 09:13:15;;;;;;;22.13;15.05;;;3.50;99.90;;;;;;4962646;28;20027;-44
2024/01/30 09:15:42;;;;;;;24.33;15.75;;;3.60;99.90;;;;;;4956305;29;20081;-46
2024/01/30 09:18:07;;;;;;;26.33;15.85;;;3.60;99.90;;;;;;4956238;29;20090;-46
2024/01/30 09:20:33;;;;;;;22.67;15.93;;;3.70;99.90;;;;;;4956249;29;20113;-49
2024/01/30 09:22:58;;;;;;;25.27;17.20;;;3.70;99.90;;;;;;4955860;29;20023;-42
2024/01/30 09:25:24;;;;;;;25.15;16.48;;;3.80;99.90;;;;;;4956225;29;20445;-47
2024/01/30 09:27:49;;;;;;;23.85;15.65;;;3.90;99.90;;;;;;4956194;29;20033;-44
2024/01/30 09:30:15;;;;;;;28.17;16.60;;;3.90;99.90;;;;;;4972631;28;20027;-48
2024/01/30 09:32:41;;;;;;;18.65;15.00;;;4.00;99.90;;;;;;4975347;28;20038;-45
2024/01/30 09:35:07;;;;;;;19.70;14.85;;;4.10;99.90;;;;;;4974000;28;20407;-46
2024/01/30 09:37:33;;;;;;;21.05;15.30;;;4.20;99.90;;;;;;4974687;28;20105;-47
2024/01/30 09:39:58;;;;;;;27.55;17.02;;;4.30;99.90;;;;;;4965927;28;20086;-43
2024/01/30 09:42:35;;;;;;;23.50;15.73;;;4.40;99.90;;;;;;4965885;28;20463;-47
2024/01/30 09:45:03;;;;;;;23.52;15.35;;;4.60;99.90;;;;;;4956704;28;20074;-46
2024/01/30 09:47:39;;;;;;;24.10;16.67;;;4.90;99.90;;;;;;4967582;28;20058;-45
2024/01/30 09:50:06;;;;;;;23.15;16.23;;;5.30;99.90;;;;;;4972949;28;20022;-45
2024/01/30 09:52:31;;;;;;;19.60;15.57;;;5.60;99.90;;;;;;4971215;28;20082;-42
2024/01/30 09:55:00;;;;;;;27.15;16.65;;;5.80;99.90;;;;;;4955280;29;20039;-45
2024/01/30 09:57:26;;;;;;;21.85;16.48;;;5.90;99.90;;;;;;4963951;28;20074;-45
2024/01/30 09:59:53;;;;;;;23.55;16.50;;;5.80;99.90;;;;;;4965573;28;20034;-43
2024/01/30 10:02:23;;;;;;;22.83;17.05;;;5.90;99.90;;;;;;4974887;28;20054;-44
2024/01/30 10:04:50;;;;;;;23.80;16.25;;;5.70;99.90;;;;;;4937838;29;20032;-48
2024/01/30 10:07:15;;;;;;;24.40;17.40;;;5.70;99.90;;;;;;4936443;29;20489;-43
2024/01/30 10:09:41;;;;;;;22.48;16.95;;;5.60;99.90;;;;;;4936670;29;20039;-44
2024/01/30 10:12:08;;;;;;;23.80;15.77;;;5.60;99.90;;;;;;4943932;28;20043;-46
2024/01/30 10:14:34;;;;;;;22.40;15.90;;;5.70;99.90;;;;;;4966402;28;20090;-45
2024/01/30 10:17:01;;;;;;;23.73;17.67;;;5.80;99.90;;;;;;4955522;29;20027;-49
2024/01/30 10:19:26;;;;;;;21.45;15.75;;;5.80;99.90;;;;;;4955366;29;20374;-44
2024/01/30 10:21:52;;;;;;;23.50;16.00;;;5.70;99.90;;;;;;4954030;29;20031;-44
2024/01/30 10:24:18;;;;;;;23.20;16.67;;;5.60;99.90;;;;;;4954275;28;20027;-47
2024/01/30 10:26:44;;;;;;;23.33;17.48;;;5.70;99.90;;;;;;4955009;29;20038;-46
2024/01/30 10:29:10;;;;;;;22.23;18.10;;;5.70;99.90;;;;;;4955179;29;20026;-44
2024/01/30 10:31:35;;;;;;;29.40;17.48;;;5.70;99.90;;;;;;4956233;28;20510;-47
2024/01/30 10:34:01;;;;;;;25.55;18.42;;;5.70;99.90;;;;;;4965424;28;20524;-46
2024/01/30 10:36:31;;;;;;;22.75;16.90;;;5.60;99.90;;;;;;4955204;29;20032;-46
2024/01/30 10:38:59;;;;;;;28.33;17.23;;;5.70;99.90;;;;;;4967771;28;20511;-44
2024/01/30 10:41:29;;;;;;;27.77;17.63;;;5.70;99.90;;;;;;4972595;28;20038;-44
2024/01/30 10:44:05;;;;;;;23.50;17.05;;;5.70;99.90;;;;;;4964681;28;20059;-44
2024/01/30 10:46:33;;;;;;;23.73;17.80;;;5.60;99.90;;;;;;4972521;28;20027;-44
2024/01/30 10:49:00;;;;;;;25.83;17.88;;;5.80;99.90;;;;;;4969076;28;20038;-44
2024/01/30 10:51:27;;;;;;;22.75;16.63;;;5.80;99.90;;;;;;4953484;29;20378;-44
2024/01/30 10:53:53;;;;;;;20.58;17.17;;;5.80;99.90;;;;;;4954413;29;20070;-44
2024/01/30 10:56:22;;;;;;;24.60;17.83;;;6.00;99.90;;;;;;4954770;29;20027;-41
2024/01/30 10:58:52;;;;;;;27.35;17.80;;;5.90;99.90;;;;;;4970433;28;20046;-39
2024/01/30 11:01:23;;;;;;;19.13;15.85;;;6.10;99.90;;;;;;4973884;28;20030;-48
2024/01/30 11:03:56;;;;;;;20.67;16.98;;;6.40;99.90;;;;;;4973026;28;20520;-51
2024/01/30 11:06:25;;;;;;;21.67;16.77;;;6.70;99.90;;;;;;4934122;29;20118;-48
2024/01/30 11:09:09;;;;;;;22.10;16.67;;;6.90;99.90;;;;;;4939379;28;20038;-51
2024/01/30 11:12:01;;;;;;;25.33;17.25;;;7.10;99.90;;;;;;4952086;28;20022;-47
2024/01/30 11:14:28;;;;;;;21.42;17.25;;;7.20;99.90;;;;;;4973020;28;20023;-49
2024/01/30 11:16:58;;;;;;;23.92;17.88;;;7.10;99.90;;;;;;4954561;28;20030;-52
2024/01/30 11:19:27;;;;;;;23.13;17.52;;;6.90;99.90;;;;;;4953217;29;20035;-47
2024/01/30 11:21:54;;;;;;;25.60;18.63;;;6.90;99.90;;;;;;4954758;28;20444;-49
2024/01/30 11:24:21;;;;;;;22.65;17.52;;;6.90;99.90;;;;;;4956900;28;20375;-50
2024/01/30 11:26:49;;;;;;;24.45;18.90;;;7.00;99.90;;;;;;4955083;29;20083;-45
2024/01/30 11:29:16;;;;;;;51.30;33.45;;;7.00;99.90;;;;;;4953605;29;20019;-44
2024/01/30 11:31:52;;;;;;;62.03;36.53;;;7.00;99.90;;;;;;4954306;29;20019;-48
2024/01/30 11:34:19;;;;;;;28.48;19.55;;;7.20;99.90;;;;;;4954862;28;20038;-46
2024/01/30 11:36:53;;;;;;;22.60;16.58;;;7.20;99.90;;;;;;4957305;28;20024;-46
2024/01/30 11:39:20;;;;;;;24.90;16.85;;;7.20;99.90;;;;;;4953658;29;20074;-43
2024/01/30 11:41:47;;;;;;;24.50;17.63;;;7.30;99.90;;;;;;4954817;28;20031;-50
2024/01/30 11:44:13;;;;;;;26.60;16.83;;;7.30;99.90;;;;;;4957942;28;20493;-47
2024/01/30 11:46:38;;;;;;;22.50;15.95;;;7.20;99.90;;;;;;4953683;29;20379;-48
2024/01/30 11:49:04;;;;;;;26.15;17.70;;;7.20;99.90;;;;;;4954019;28;20050;-51
2024/01/30 11:51:31;;;;;;;24.83;16.77;;;7.20;99.90;;;;;;4973209;28;20154;-45
2024/01/30 11:53:57;;;;;;;25.55;16.55;;;7.20;99.90;;;;;;4960161;28;20464;-46
2024/01/30 11:56:25;;;;;;;20.92;17.38;;;7.20;99.90;;;;;;4973025;28;20408;-44
2024/01/30 11:58:52;;;;;;;20.10;15.23;;;7.30;99.90;;;;;;4948195;29;20027;-52
2024/01/30 12:01:17;;;;;;;23.27;15.75;;;7.30;99.90;;;;;;4952423;29;20035;-43
2024/01/30 12:03:49;;;;;;;24.67;18.13;;;7.40;99.90;;;;;;4953243;29;20038;-44
2024/01/30 12:06:16;;;;;;;25.42;16.88;;;7.50;99.90;;;;;;4953748;29;20399;-41
2024/01/30 12:08:42;;;;;;;25.67;17.88;;;7.60;99.90;;;;;;4955880;28;20397;-46
2024/01/30 12:11:07;;;;;;;22.98;16.58;;;7.70;99.90;;;;;;4954471;29;20027;-46
2024/01/30 12:13:33;;;;;;;21.02;16.55;;;7.70;99.90;;;;;;4953123;29;20519;-45
2024/01/30 12:16:01;;;;;;;25.23;17.42;;;7.70;99.90;;;;;;4953535;29;20443;-43
2024/01/30 12:18:26;;;;;;;25.10;17.77;;;7.70;99.90;;;;;;4952173;29;20445;-43
2024/01/30 12:21:02;;;;;;;22.10;16.48;;;7.80;99.90;;;;;;4957348;28;20031;-44
2024/01/30 12:23:27;;;;;;;;;;;7.90;99.90;;;;;;4953221;29;20031;-43
2024/01/30 12:25:53;;;;;;;;;;;7.90;99.90;;;;;;4953834;29;19918;-44
2024/01/30 12:28:20;;;;;;;31.03;16.93;;;8.10;99.90;;;;;;4955356;28;19946;-45
2024/01/30 12:30:46;;;;;;;24.58;16.55;;;8.20;99.90;;;;;;4953189;29;20106;-50
2024/01/30 12:33:17;;;;;;;27.27;16.77;;;8.30;99.90;;;;;;4953394;29;20051;-43